createdAt,value
2023-08-11T00:00:10.096Z,9.43
2023-08-11T00:02:40.146Z,9.00
2023-08-11T00:05:09.897Z,9.48
2023-08-11T00:07:36.932Z,9.85
2023-08-11T00:10:09.389Z,10.09
2023-08-11T00:12:36.699Z,8.94
2023-08-11T00:15:24.124Z,9.42
2023-08-11T00:17:54.418Z,9.97
2023-08-11T00:20:21.544Z,9.85
2023-08-11T00:22:48.758Z,9.27
2023-08-11T00:25:16.332Z,8.43
2023-08-11T00:27:43.514Z,8.85
2023-08-11T00:30:11.571Z,10.27
2023-08-11T00:32:39.613Z,9.55
2023-08-11T00:35:07.529Z,9.55
2023-08-11T00:37:35.282Z,8.68
2023-08-11T00:40:08.150Z,9.36
2023-08-11T00:42:35.521Z,8.87
2023-08-11T00:45:04.216Z,9.06
2023-08-11T00:47:37.455Z,9.52
2023-08-11T00:50:05.191Z,7.88
2023-08-11T00:52:32.447Z,8.32
2023-08-11T00:55:02.984Z,8.57
2023-08-11T00:57:30.215Z,7.68
2023-08-11T00:59:57.677Z,9.81
2023-08-11T01:02:24.816Z,9.71
2023-08-11T01:04:54.794Z,7.84
2023-08-11T01:07:33.502Z,10.10
2023-08-11T01:10:09.909Z,8.73
2023-08-11T01:13:24.344Z,7.38
2023-08-11T01:16:10.638Z,9.92
2023-08-11T01:18:38.201Z,8.88
2023-08-11T01:21:12.471Z,7.19
2023-08-11T01:23:44.462Z,8.13
2023-08-11T01:26:12.893Z,8.53
2023-08-11T01:28:42.411Z,9.60
2023-08-11T01:31:10.088Z,9.79
2023-08-11T01:33:37.189Z,9.23
2023-08-11T01:36:06.833Z,7.37
2023-08-11T01:38:34.060Z,7.99
2023-08-11T01:41:03.911Z,8.91
2023-08-11T01:43:31.499Z,9.64
2023-08-11T01:45:59.802Z,8.58
2023-08-11T01:48:27.910Z,8.56
2023-08-11T01:50:56.665Z,8.34
2023-08-11T01:53:23.849Z,8.72
2023-08-11T01:55:51.841Z,9.57
2023-08-11T01:58:18.967Z,8.58
2023-08-11T02:00:46.113Z,7.88
2023-08-11T02:03:14.408Z,8.79
2023-08-11T02:05:41.547Z,7.86
2023-08-11T02:08:08.637Z,8.79
2023-08-11T02:10:35.735Z,8.71
2023-08-11T02:13:04.556Z,8.53
2023-08-11T02:15:31.546Z,8.34
2023-08-11T02:17:58.612Z,7.97
2023-08-11T02:20:25.944Z,8.43
2023-08-11T02:22:54.254Z,7.82
2023-08-11T02:25:21.871Z,9.14
2023-08-11T02:27:49.313Z,6.96
2023-08-11T02:30:19.906Z,9.24
2023-08-11T02:32:52.519Z,8.70
2023-08-11T02:35:28.133Z,7.07
2023-08-11T02:38:04.768Z,9.38
2023-08-11T02:40:37.642Z,8.37
2023-08-11T02:43:08.715Z,7.55
2023-08-11T02:45:37.282Z,7.98
2023-08-11T02:48:04.647Z,8.66
2023-08-11T02:50:32.049Z,9.30
2023-08-11T02:52:59.103Z,8.10
2023-08-11T02:55:26.584Z,8.26
2023-08-11T02:57:53.644Z,7.65
2023-08-11T03:00:20.703Z,8.59
2023-08-11T03:02:48.440Z,7.70
2023-08-11T03:05:17.397Z,8.95
2023-08-11T03:07:46.935Z,8.03
2023-08-11T03:10:14.165Z,7.92
2023-08-11T03:12:43.421Z,7.90
2023-08-11T03:15:10.720Z,7.48
2023-08-11T03:17:39.346Z,6.31
2023-08-11T03:20:13.126Z,7.85
2023-08-11T03:22:42.485Z,7.36
2023-08-11T03:25:10.887Z,8.28
2023-08-11T03:27:40.124Z,8.41
2023-08-11T03:30:10.471Z,7.79
2023-08-11T03:32:42.245Z,7.99
2023-08-11T03:35:10.520Z,8.29
2023-08-11T03:37:39.242Z,7.48
2023-08-11T03:40:14.453Z,7.74
2023-08-11T03:42:46.123Z,7.76
2023-08-11T03:45:14.872Z,7.47
2023-08-11T03:47:43.931Z,6.70
2023-08-11T03:50:17.051Z,7.33
2023-08-11T03:52:44.491Z,6.79
2023-08-11T03:55:14.068Z,7.45
2023-08-11T03:57:41.470Z,7.42
2023-08-11T04:00:18.155Z,7.08
2023-08-11T04:02:51.837Z,7.84
2023-08-11T04:05:19.839Z,7.73
2023-08-11T04:07:46.887Z,8.23
2023-08-11T04:10:14.101Z,7.66
2023-08-11T04:12:41.352Z,7.65
2023-08-11T04:15:08.706Z,7.08
2023-08-11T04:17:35.854Z,7.54
2023-08-11T04:20:12.726Z,6.77
2023-08-11T04:22:41.447Z,7.38
2023-08-11T04:25:10.696Z,7.76
2023-08-11T04:27:41.263Z,8.08
2023-08-11T04:30:10.187Z,8.38
2023-08-11T04:32:38.997Z,7.93
2023-08-11T04:35:10.080Z,7.68
2023-08-11T04:37:39.530Z,6.58
2023-08-11T04:40:08.452Z,8.38
2023-08-11T04:42:35.699Z,7.16
2023-08-11T04:45:03.019Z,8.08
2023-08-11T04:47:30.889Z,7.85
2023-08-11T04:49:58.677Z,7.68
2023-08-11T04:52:25.847Z,7.03
2023-08-11T04:54:52.876Z,7.22
2023-08-11T04:57:20.138Z,6.79
2023-08-11T04:59:49.289Z,7.02
2023-08-11T05:02:16.389Z,8.46
2023-08-11T05:04:43.533Z,7.64
2023-08-11T05:07:11.042Z,7.34
2023-08-11T05:09:38.934Z,8.79
2023-08-11T05:12:06.694Z,8.45
2023-08-11T05:14:34.038Z,7.97
2023-08-11T05:17:03.817Z,8.08
2023-08-11T05:19:32.706Z,8.29
2023-08-11T05:21:59.685Z,8.68
2023-08-11T05:24:26.698Z,9.45
2023-08-11T05:26:53.786Z,9.43
2023-08-11T05:29:20.899Z,9.21
2023-08-11T05:31:48.461Z,9.46
2023-08-11T05:34:15.816Z,9.27
2023-08-11T05:36:45.906Z,9.76
2023-08-11T05:39:14.178Z,8.63
2023-08-11T05:41:42.553Z,9.16
2023-08-11T05:44:09.938Z,8.91
2023-08-11T05:46:37.133Z,9.26
2023-08-11T05:49:04.460Z,9.58
2023-08-11T05:51:31.609Z,10.72
2023-08-11T05:53:58.826Z,10.36
2023-08-11T05:56:25.878Z,10.92
2023-08-11T05:58:53.036Z,11.49
2023-08-11T06:01:20.149Z,11.28
2023-08-11T06:03:50.006Z,10.20
2023-08-11T06:06:20.366Z,10.59
2023-08-11T06:08:50.960Z,10.86
2023-08-11T06:11:18.194Z,12.08
2023-08-11T06:13:45.273Z,11.82
2023-08-11T06:16:12.483Z,11.97
2023-08-11T06:18:39.763Z,11.34
2023-08-11T06:21:07.462Z,12.64
2023-08-11T06:23:34.651Z,13.29
2023-08-11T06:26:01.686Z,12.77
2023-08-11T06:28:28.802Z,12.94
2023-08-11T06:30:57.736Z,12.44
2023-08-11T06:33:26.532Z,13.25
2023-08-11T06:35:54.439Z,13.91
2023-08-11T06:38:21.565Z,13.70
2023-08-11T06:40:49.172Z,13.48
2023-08-11T06:43:16.164Z,13.23
2023-08-11T06:45:46.375Z,14.47
2023-08-11T06:48:13.661Z,14.90
2023-08-11T06:50:40.858Z,13.95
2023-08-11T06:53:10.492Z,13.58
2023-08-11T06:55:37.766Z,15.22
2023-08-11T06:58:05.489Z,14.17
2023-08-11T07:00:32.523Z,15.25
2023-08-11T07:02:59.649Z,15.17
2023-08-11T07:05:27.048Z,15.18
2023-08-11T07:07:54.206Z,15.81
2023-08-11T07:10:21.399Z,15.13
2023-08-11T07:12:48.601Z,14.75
2023-08-11T07:15:15.732Z,16.93
2023-08-11T07:17:42.890Z,15.75
2023-08-11T07:20:10.257Z,16.24
2023-08-11T07:22:37.368Z,16.86
2023-08-11T07:25:04.800Z,16.90
2023-08-11T07:27:31.828Z,17.57
2023-08-11T07:29:58.961Z,17.64
2023-08-11T07:32:26.044Z,17.86
2023-08-11T07:34:53.197Z,17.14
2023-08-11T07:37:20.308Z,18.61
2023-08-11T07:39:47.381Z,17.71
2023-08-11T07:42:15.118Z,17.82
2023-08-11T07:44:42.133Z,18.06
2023-08-11T07:47:09.514Z,17.17
2023-08-11T07:49:37.064Z,18.55
2023-08-11T07:52:04.612Z,18.48
2023-08-11T07:54:31.856Z,18.40
2023-08-11T07:56:59.070Z,19.05
2023-08-11T07:59:26.321Z,18.24
2023-08-11T08:01:53.731Z,18.19
2023-08-11T08:04:20.891Z,18.97
2023-08-11T08:06:48.131Z,18.54
2023-08-11T08:09:16.208Z,19.12
2023-08-11T08:11:45.097Z,20.14
2023-08-11T08:14:13.753Z,19.02
2023-08-11T08:16:46.466Z,19.31
2023-08-11T08:19:15.803Z,19.46
2023-08-11T08:21:43.944Z,19.76
2023-08-11T08:24:11.061Z,19.98
2023-08-11T08:26:38.241Z,19.70
2023-08-11T08:29:06.112Z,20.45
2023-08-11T08:31:33.849Z,20.05
2023-08-11T08:34:01.168Z,20.26
2023-08-11T08:36:30.533Z,19.25
2023-08-11T08:38:57.814Z,20.59
2023-08-11T08:41:29.735Z,20.85
2023-08-11T08:43:57.787Z,20.60
2023-08-11T08:46:31.975Z,20.78
2023-08-11T08:49:13.344Z,21.43
2023-08-11T08:51:42.026Z,21.08
2023-08-11T08:54:11.777Z,20.34
2023-08-11T08:56:40.658Z,21.72
2023-08-11T08:59:08.704Z,20.96
2023-08-11T09:01:38.568Z,22.31
2023-08-11T09:04:10.227Z,20.67
2023-08-11T09:06:40.073Z,21.43
2023-08-11T09:09:10.404Z,20.64
2023-08-11T09:11:39.637Z,21.34
2023-08-11T09:14:08.161Z,21.86
2023-08-11T09:16:37.122Z,21.92
2023-08-11T09:19:06.159Z,22.13
2023-08-11T09:21:33.160Z,22.49
2023-08-11T09:24:01.192Z,21.96
2023-08-11T09:26:28.517Z,22.00
2023-08-11T09:28:56.492Z,22.35
2023-08-11T09:31:24.451Z,22.17
2023-08-11T09:33:52.783Z,21.49
2023-08-11T09:36:20.965Z,20.92
2023-08-11T09:38:49.981Z,22.41
2023-08-11T09:41:17.961Z,21.92
2023-08-11T09:43:51.922Z,21.93
2023-08-11T09:46:26.583Z,22.14
2023-08-11T09:48:56.407Z,22.68
2023-08-11T09:51:24.258Z,22.28
2023-08-11T09:53:53.089Z,21.77
2023-08-11T09:56:21.628Z,22.71
2023-08-11T09:58:53.903Z,22.53
2023-08-11T10:01:22.418Z,22.33
2023-08-11T10:03:49.923Z,22.73
2023-08-11T10:06:22.870Z,22.80
2023-08-11T10:08:51.546Z,22.32
2023-08-11T10:11:21.237Z,23.15
2023-08-11T10:13:49.583Z,22.86
2023-08-11T10:16:17.513Z,22.63
2023-08-11T10:18:45.380Z,22.96
2023-08-11T10:21:13.755Z,23.10
2023-08-11T10:23:41.576Z,23.61
2023-08-11T10:26:09.609Z,23.43
2023-08-11T10:28:37.389Z,22.81
2023-08-11T10:31:06.441Z,23.06
2023-08-11T10:33:33.692Z,23.61
2023-08-11T10:36:02.030Z,22.71
2023-08-11T10:38:31.630Z,23.51
2023-08-11T10:41:01.924Z,23.52
2023-08-11T10:43:32.222Z,23.85
2023-08-11T10:46:18.187Z,23.53
2023-08-11T10:48:45.420Z,24.01
2023-08-11T10:51:38.749Z,24.81
2023-08-11T10:54:10.621Z,24.78
2023-08-11T10:56:43.001Z,23.45
2023-08-11T10:59:19.198Z,24.60
2023-08-11T11:01:49.461Z,23.76
2023-08-11T11:04:18.242Z,23.74
2023-08-11T11:06:47.332Z,24.98
2023-08-11T11:09:15.207Z,24.82
2023-08-11T11:11:42.434Z,24.15
2023-08-11T11:14:10.839Z,22.89
2023-08-11T11:16:39.040Z,23.64
2023-08-11T11:19:08.433Z,24.21
2023-08-11T11:21:36.257Z,24.91
2023-08-11T11:24:03.394Z,25.41
2023-08-11T11:26:32.641Z,24.44
2023-08-11T11:29:02.195Z,24.82
2023-08-11T11:31:32.065Z,25.89
2023-08-11T11:33:59.868Z,25.20
2023-08-11T11:36:27.095Z,25.30
2023-08-11T11:38:54.240Z,25.30
2023-08-11T11:41:21.635Z,25.82
2023-08-11T11:43:50.511Z,26.17
2023-08-11T11:46:20.822Z,25.59
2023-08-11T11:48:50.802Z,25.17
2023-08-11T11:51:19.599Z,26.67
2023-08-11T11:53:47.076Z,26.81
2023-08-11T11:56:23.785Z,26.73
2023-08-11T11:58:51.391Z,26.30
2023-08-11T12:01:29.174Z,25.83
2023-08-11T12:04:02.481Z,26.09
2023-08-11T12:06:30.292Z,25.84
2023-08-11T12:09:10.612Z,26.71
2023-08-11T12:11:40.585Z,26.90
2023-08-11T12:14:07.823Z,27.13
2023-08-11T12:16:36.620Z,26.81
2023-08-11T12:19:04.965Z,27.98
2023-08-11T12:21:33.163Z,27.16
2023-08-11T12:24:00.128Z,27.09
2023-08-11T12:26:27.634Z,27.51
2023-08-11T12:28:54.615Z,27.29
2023-08-11T12:31:21.904Z,27.31
2023-08-11T12:33:49.047Z,26.29
2023-08-11T12:36:16.711Z,27.58
2023-08-11T12:38:43.688Z,27.61
2023-08-11T12:41:10.665Z,27.11
2023-08-11T12:43:37.631Z,26.90
2023-08-11T12:46:04.632Z,26.91
2023-08-11T12:48:31.688Z,25.99
2023-08-11T12:55:19.804Z,27.12
2023-08-11T12:57:46.923Z,26.89
2023-08-11T13:00:15.097Z,26.93
2023-08-11T13:02:42.406Z,27.94
2023-08-11T18:16:37.978Z,20.61
2023-08-11T22:31:04.760Z,15.26
2023-08-11T22:39:24.513Z,14.29
